sensor_id;sensor_type;location;lat;lon;timestamp;P1;durP1;ratioP1;P2;durP2;ratioP2
77888;SDS011;67082;41.704;44.768;2023-09-18T00:01:44;6.10;;;3.10;;
77888;SDS011;67082;41.704;44.768;2023-09-18T00:04:12;6.07;;;3.05;;
77888;SDS011;67082;41.704;44.768;2023-09-18T00:06:40;8.73;;;3.53;;
77888;SDS011;67082;41.704;44.768;2023-09-18T00:09:08;6.43;;;3.15;;
77888;SDS011;67082;41.704;44.768;2023-09-18T00:11:41;6.85;;;2.80;;
77888;SDS011;67082;41.704;44.768;2023-09-18T00:14:12;4.60;;;3.20;;
77888;SDS011;67082;41.704;44.768;2023-09-18T00:16:40;5.20;;;3.15;;
77888;SDS011;67082;41.704;44.768;2023-09-18T00:19:24;5.63;;;3.28;;
77888;SDS011;67082;41.704;44.768;2023-09-18T00:21:53;4.55;;;2.83;;
77888;SDS011;67082;41.704;44.768;2023-09-18T00:24:22;3.90;;;2.80;;
77888;SDS011;67082;41.704;44.768;2023-09-18T00:26:50;4.85;;;2.95;;
77888;SDS011;67082;41.704;44.768;2023-09-18T00:29:20;3.75;;;2.40;;
77888;SDS011;67082;41.704;44.768;2023-09-18T00:31:49;6.47;;;3.20;;
77888;SDS011;67082;41.704;44.768;2023-09-18T00:34:18;5.60;;;3.30;;
77888;SDS011;67082;41.704;44.768;2023-09-18T00:36:46;5.88;;;2.90;;
77888;SDS011;67082;41.704;44.768;2023-09-18T00:39:14;4.05;;;3.00;;
77888;SDS011;67082;41.704;44.768;2023-09-18T00:41:43;5.72;;;3.10;;
77888;SDS011;67082;41.704;44.768;2023-09-18T00:44:11;5.43;;;3.00;;
77888;SDS011;67082;41.704;44.768;2023-09-18T00:46:39;3.55;;;2.58;;
77888;SDS011;67082;41.704;44.768;2023-09-18T00:49:08;4.47;;;2.97;;
77888;SDS011;67082;41.704;44.768;2023-09-18T00:51:38;4.95;;;3.10;;
77888;SDS011;67082;41.704;44.768;2023-09-18T00:54:06;5.07;;;2.92;;
77888;SDS011;67082;41.704;44.768;2023-09-18T00:56:37;5.80;;;2.70;;
77888;SDS011;67082;41.704;44.768;2023-09-18T00:59:05;5.80;;;3.13;;
77888;SDS011;67082;41.704;44.768;2023-09-18T01:01:34;5.68;;;2.88;;
77888;SDS011;67082;41.704;44.768;2023-09-18T01:04:03;5.72;;;3.30;;
77888;SDS011;67082;41.704;44.768;2023-09-18T01:06:31;3.78;;;3.00;;
77888;SDS011;67082;41.704;44.768;2023-09-18T01:08:59;6.32;;;3.35;;
77888;SDS011;67082;41.704;44.768;2023-09-18T01:17:10;5.82;;;3.08;;
77888;SDS011;67082;41.704;44.768;2023-09-18T01:19:44;6.38;;;3.40;;
77888;SDS011;67082;41.704;44.768;2023-09-18T01:22:15;5.30;;;3.40;;
77888;SDS011;67082;41.704;44.768;2023-09-18T01:24:46;4.78;;;3.63;;
77888;SDS011;67082;41.704;44.768;2023-09-18T01:27:17;5.18;;;2.92;;
77888;SDS011;67082;41.704;44.768;2023-09-18T01:29:47;5.25;;;3.38;;
77888;SDS011;67082;41.704;44.768;2023-09-18T01:32:18;6.63;;;3.40;;
77888;SDS011;67082;41.704;44.768;2023-09-18T01:34:47;6.53;;;3.42;;
77888;SDS011;67082;41.704;44.768;2023-09-18T01:37:21;5.75;;;3.10;;
77888;SDS011;67082;41.704;44.768;2023-09-18T01:39:53;4.43;;;3.30;;
77888;SDS011;67082;41.704;44.768;2023-09-18T01:42:28;6.75;;;3.33;;
77888;SDS011;67082;41.704;44.768;2023-09-18T01:44:57;6.15;;;3.50;;
77888;SDS011;67082;41.704;44.768;2023-09-18T01:47:26;4.75;;;3.67;;
77888;SDS011;67082;41.704;44.768;2023-09-18T01:49:58;6.93;;;3.05;;
77888;SDS011;67082;41.704;44.768;2023-09-18T01:52:30;9.52;;;3.78;;
77888;SDS011;67082;41.704;44.768;2023-09-18T01:54:59;8.13;;;3.25;;
77888;SDS011;67082;41.704;44.768;2023-09-18T01:57:27;4.68;;;3.67;;
77888;SDS011;67082;41.704;44.768;2023-09-18T01:59:57;6.90;;;3.70;;
77888;SDS011;67082;41.704;44.768;2023-09-18T02:02:27;5.38;;;3.35;;
77888;SDS011;67082;41.704;44.768;2023-09-18T02:05:15;5.72;;;3.60;;
77888;SDS011;67082;41.704;44.768;2023-09-18T02:07:43;4.95;;;3.58;;
77888;SDS011;67082;41.704;44.768;2023-09-18T02:10:12;6.07;;;3.13;;
77888;SDS011;67082;41.704;44.768;2023-09-18T02:12:40;5.03;;;3.30;;
77888;SDS011;67082;41.704;44.768;2023-09-18T02:15:11;4.63;;;2.80;;
77888;SDS011;67082;41.704;44.768;2023-09-18T02:17:39;4.03;;;2.95;;
77888;SDS011;67082;41.704;44.768;2023-09-18T02:20:08;7.22;;;3.45;;
77888;SDS011;67082;41.704;44.768;2023-09-18T02:22:39;7.85;;;3.30;;
77888;SDS011;67082;41.704;44.768;2023-09-18T02:25:08;7.03;;;3.78;;
77888;SDS011;67082;41.704;44.768;2023-09-18T02:27:36;6.65;;;3.70;;
77888;SDS011;67082;41.704;44.768;2023-09-18T02:30:05;4.05;;;3.15;;
77888;SDS011;67082;41.704;44.768;2023-09-18T02:32:36;6.30;;;3.60;;
77888;SDS011;67082;41.704;44.768;2023-09-18T02:35:05;5.25;;;3.38;;
77888;SDS011;67082;41.704;44.768;2023-09-18T02:37:35;5.85;;;3.20;;
77888;SDS011;67082;41.704;44.768;2023-09-18T02:40:03;7.22;;;3.60;;
77888;SDS011;67082;41.704;44.768;2023-09-18T02:42:32;5.88;;;3.40;;
77888;SDS011;67082;41.704;44.768;2023-09-18T02:45:01;5.55;;;3.65;;
77888;SDS011;67082;41.704;44.768;2023-09-18T02:47:30;7.60;;;3.70;;
77888;SDS011;67082;41.704;44.768;2023-09-18T02:49:59;6.50;;;3.80;;
77888;SDS011;67082;41.704;44.768;2023-09-18T02:52:29;5.43;;;3.70;;
77888;SDS011;67082;41.704;44.768;2023-09-18T02:54:58;6.00;;;3.60;;
77888;SDS011;67082;41.704;44.768;2023-09-18T02:57:26;5.30;;;3.65;;
77888;SDS011;67082;41.704;44.768;2023-09-18T02:59:54;7.13;;;3.83;;
77888;SDS011;67082;41.704;44.768;2023-09-18T03:02:22;5.80;;;3.42;;
77888;SDS011;67082;41.704;44.768;2023-09-18T03:04:52;6.40;;;3.30;;
77888;SDS011;67082;41.704;44.768;2023-09-18T03:07:20;6.32;;;2.78;;
77888;SDS011;67082;41.704;44.768;2023-09-18T03:09:50;6.35;;;2.65;;
77888;SDS011;67082;41.704;44.768;2023-09-18T03:12:19;5.68;;;2.88;;
77888;SDS011;67082;41.704;44.768;2023-09-18T03:14:47;8.63;;;2.90;;
77888;SDS011;67082;41.704;44.768;2023-09-18T03:17:16;6.28;;;3.25;;
77888;SDS011;67082;41.704;44.768;2023-09-18T03:19:47;5.28;;;2.85;;
77888;SDS011;67082;41.704;44.768;2023-09-18T03:22:16;6.88;;;2.92;;
77888;SDS011;67082;41.704;44.768;2023-09-18T03:24:45;7.65;;;3.30;;
77888;SDS011;67082;41.704;44.768;2023-09-18T03:27:13;4.43;;;2.72;;
77888;SDS011;67082;41.704;44.768;2023-09-18T03:29:42;6.53;;;2.75;;
77888;SDS011;67082;41.704;44.768;2023-09-18T03:32:11;4.18;;;2.42;;
77888;SDS011;67082;41.704;44.768;2023-09-18T03:34:40;7.50;;;3.75;;
77888;SDS011;67082;41.704;44.768;2023-09-18T03:37:09;5.78;;;3.80;;
77888;SDS011;67082;41.704;44.768;2023-09-18T03:39:38;8.73;;;4.00;;
77888;SDS011;67082;41.704;44.768;2023-09-18T03:42:06;5.43;;;3.20;;
77888;SDS011;67082;41.704;44.768;2023-09-18T03:44:35;7.50;;;3.47;;
77888;SDS011;67082;41.704;44.768;2023-09-18T03:47:03;7.65;;;2.97;;
77888;SDS011;67082;41.704;44.768;2023-09-18T03:49:35;6.45;;;2.60;;
77888;SDS011;67082;41.704;44.768;2023-09-18T03:52:03;9.02;;;3.45;;
77888;SDS011;67082;41.704;44.768;2023-09-18T03:54:31;6.00;;;2.88;;
77888;SDS011;67082;41.704;44.768;2023-09-18T03:56:59;9.23;;;2.85;;
77888;SDS011;67082;41.704;44.768;2023-09-18T03:59:28;5.05;;;2.08;;
77888;SDS011;67082;41.704;44.768;2023-09-18T04:01:56;4.30;;;2.33;;
77888;SDS011;67082;41.704;44.768;2023-09-18T04:04:25;4.53;;;2.40;;
77888;SDS011;67082;41.704;44.768;2023-09-18T04:06:53;5.78;;;2.70;;
77888;SDS011;67082;41.704;44.768;2023-09-18T04:09:22;4.50;;;2.25;;
77888;SDS011;67082;41.704;44.768;2023-09-18T04:11:50;3.63;;;2.25;;
77888;SDS011;67082;41.704;44.768;2023-09-18T04:14:18;8.52;;;2.38;;
77888;SDS011;67082;41.704;44.768;2023-09-18T04:16:46;7.70;;;2.55;;
77888;SDS011;67082;41.704;44.768;2023-09-18T04:19:14;8.95;;;2.45;;
77888;SDS011;67082;41.704;44.768;2023-09-18T04:21:42;4.97;;;2.53;;
77888;SDS011;67082;41.704;44.768;2023-09-18T04:24:11;4.15;;;2.22;;
77888;SDS011;67082;41.704;44.768;2023-09-18T04:26:39;5.63;;;2.10;;
77888;SDS011;67082;41.704;44.768;2023-09-18T04:29:08;4.28;;;2.17;;
77888;SDS011;67082;41.704;44.768;2023-09-18T04:31:36;6.95;;;2.65;;
77888;SDS011;67082;41.704;44.768;2023-09-18T04:34:06;5.50;;;2.17;;
77888;SDS011;67082;41.704;44.768;2023-09-18T04:36:34;6.13;;;2.60;;
77888;SDS011;67082;41.704;44.768;2023-09-18T04:39:06;7.05;;;2.30;;
77888;SDS011;67082;41.704;44.768;2023-09-18T04:41:34;6.30;;;2.55;;
77888;SDS011;67082;41.704;44.768;2023-09-18T04:44:05;8.50;;;2.50;;
77888;SDS011;67082;41.704;44.768;2023-09-18T04:46:35;4.78;;;2.08;;
77888;SDS011;67082;41.704;44.768;2023-09-18T04:49:03;5.45;;;2.40;;
77888;SDS011;67082;41.704;44.768;2023-09-18T04:51:32;6.85;;;2.45;;
77888;SDS011;67082;41.704;44.768;2023-09-18T04:54:03;6.40;;;2.25;;
77888;SDS011;67082;41.704;44.768;2023-09-18T04:56:32;3.80;;;2.08;;
77888;SDS011;67082;41.704;44.768;2023-09-18T04:59:01;6.55;;;2.08;;
77888;SDS011;67082;41.704;44.768;2023-09-18T05:01:29;9.35;;;2.33;;
77888;SDS011;67082;41.704;44.768;2023-09-18T05:03:58;4.60;;;2.10;;
77888;SDS011;67082;41.704;44.768;2023-09-18T05:06:26;6.30;;;2.22;;
77888;SDS011;67082;41.704;44.768;2023-09-18T05:08:55;7.15;;;2.28;;
77888;SDS011;67082;41.704;44.768;2023-09-18T05:11:23;6.50;;;2.25;;
77888;SDS011;67082;41.704;44.768;2023-09-18T05:13:51;6.57;;;2.25;;
77888;SDS011;67082;41.704;44.768;2023-09-18T05:16:20;6.50;;;2.60;;
77888;SDS011;67082;41.704;44.768;2023-09-18T05:18:48;6.70;;;2.30;;
77888;SDS011;67082;41.704;44.768;2023-09-18T05:21:17;4.63;;;2.05;;
77888;SDS011;67082;41.704;44.768;2023-09-18T05:23:50;8.65;;;2.65;;
77888;SDS011;67082;41.704;44.768;2023-09-18T05:26:19;6.97;;;2.60;;
77888;SDS011;67082;41.704;44.768;2023-09-18T05:28:47;7.25;;;2.47;;
77888;SDS011;67082;41.704;44.768;2023-09-18T05:31:18;8.30;;;3.20;;
77888;SDS011;67082;41.704;44.768;2023-09-18T05:33:47;9.18;;;3.28;;
77888;SDS011;67082;41.704;44.768;2023-09-18T05:36:15;8.02;;;2.92;;
77888;SDS011;67082;41.704;44.768;2023-09-18T05:38:44;7.85;;;3.05;;
77888;SDS011;67082;41.704;44.768;2023-09-18T05:41:12;10.77;;;3.33;;
77888;SDS011;67082;41.704;44.768;2023-09-18T05:43:40;8.98;;;3.65;;
77888;SDS011;67082;41.704;44.768;2023-09-18T05:46:08;7.90;;;3.50;;
77888;SDS011;67082;41.704;44.768;2023-09-18T05:48:37;7.40;;;3.83;;
77888;SDS011;67082;41.704;44.768;2023-09-18T05:51:05;12.40;;;3.80;;
77888;SDS011;67082;41.704;44.768;2023-09-18T05:53:33;14.65;;;3.75;;
77888;SDS011;67082;41.704;44.768;2023-09-18T05:56:02;6.55;;;3.50;;
77888;SDS011;67082;41.704;44.768;2023-09-18T05:58:32;4.82;;;3.30;;
77888;SDS011;67082;41.704;44.768;2023-09-18T06:01:00;5.78;;;3.20;;
77888;SDS011;67082;41.704;44.768;2023-09-18T06:03:29;6.72;;;3.10;;
77888;SDS011;67082;41.704;44.768;2023-09-18T06:06:03;7.35;;;3.40;;
77888;SDS011;67082;41.704;44.768;2023-09-18T06:08:32;6.63;;;3.00;;
77888;SDS011;67082;41.704;44.768;2023-09-18T06:11:01;7.65;;;3.55;;
77888;SDS011;67082;41.704;44.768;2023-09-18T06:13:30;7.03;;;3.20;;
77888;SDS011;67082;41.704;44.768;2023-09-18T06:15:58;7.32;;;3.13;;
77888;SDS011;67082;41.704;44.768;2023-09-18T06:18:26;7.30;;;2.92;;
77888;SDS011;67082;41.704;44.768;2023-09-18T06:20:54;7.97;;;3.20;;
77888;SDS011;67082;41.704;44.768;2023-09-18T06:23:23;9.13;;;2.88;;
77888;SDS011;67082;41.704;44.768;2023-09-18T06:25:51;7.32;;;2.50;;
77888;SDS011;67082;41.704;44.768;2023-09-18T06:28:24;4.85;;;2.10;;
77888;SDS011;67082;41.704;44.768;2023-09-18T06:30:52;4.47;;;1.95;;
77888;SDS011;67082;41.704;44.768;2023-09-18T06:33:22;4.32;;;1.75;;
77888;SDS011;67082;41.704;44.768;2023-09-18T06:35:51;8.73;;;2.17;;
77888;SDS011;67082;41.704;44.768;2023-09-18T06:38:20;6.88;;;1.92;;
77888;SDS011;67082;41.704;44.768;2023-09-18T06:40:48;5.55;;;1.80;;
77888;SDS011;67082;41.704;44.768;2023-09-18T06:43:18;8.65;;;2.47;;
77888;SDS011;67082;41.704;44.768;2023-09-18T06:45:46;4.40;;;2.00;;
77888;SDS011;67082;41.704;44.768;2023-09-18T06:48:14;3.17;;;1.70;;
77888;SDS011;67082;41.704;44.768;2023-09-18T06:50:44;3.50;;;2.00;;
77888;SDS011;67082;41.704;44.768;2023-09-18T06:53:12;6.45;;;2.15;;
77888;SDS011;67082;41.704;44.768;2023-09-18T06:55:41;4.60;;;2.17;;
77888;SDS011;67082;41.704;44.768;2023-09-18T06:58:09;5.13;;;2.33;;
77888;SDS011;67082;41.704;44.768;2023-09-18T07:00:37;4.40;;;2.22;;
77888;SDS011;67082;41.704;44.768;2023-09-18T07:03:07;9.05;;;2.47;;
77888;SDS011;67082;41.704;44.768;2023-09-18T07:05:37;7.18;;;3.40;;
77888;SDS011;67082;41.704;44.768;2023-09-18T07:08:08;6.07;;;3.95;;
77888;SDS011;67082;41.704;44.768;2023-09-18T07:10:39;6.72;;;3.67;;
77888;SDS011;67082;41.704;44.768;2023-09-18T07:15:45;8.40;;;2.70;;
77888;SDS011;67082;41.704;44.768;2023-09-18T07:18:16;5.72;;;2.92;;
77888;SDS011;67082;41.704;44.768;2023-09-18T07:20:44;5.18;;;2.50;;
77888;SDS011;67082;41.704;44.768;2023-09-18T07:23:13;4.35;;;2.40;;
77888;SDS011;67082;41.704;44.768;2023-09-18T07:25:41;3.97;;;2.42;;
77888;SDS011;67082;41.704;44.768;2023-09-18T07:28:11;4.53;;;2.45;;
77888;SDS011;67082;41.704;44.768;2023-09-18T07:30:43;5.72;;;2.65;;
77888;SDS011;67082;41.704;44.768;2023-09-18T07:33:13;5.13;;;2.10;;
77888;SDS011;67082;41.704;44.768;2023-09-18T07:35:48;4.57;;;2.10;;
77888;SDS011;67082;41.704;44.768;2023-09-18T07:38:19;5.88;;;2.30;;
77888;SDS011;67082;41.704;44.768;2023-09-18T07:40:47;5.75;;;2.53;;
77888;SDS011;67082;41.704;44.768;2023-09-18T07:43:16;5.30;;;2.42;;
77888;SDS011;67082;41.704;44.768;2023-09-18T07:45:44;3.20;;;2.00;;
77888;SDS011;67082;41.704;44.768;2023-09-18T07:48:12;4.50;;;2.53;;
77888;SDS011;67082;41.704;44.768;2023-09-18T07:50:42;5.93;;;2.40;;
77888;SDS011;67082;41.704;44.768;2023-09-18T07:53:12;6.30;;;2.95;;
77888;SDS011;67082;41.704;44.768;2023-09-18T07:55:40;4.60;;;2.60;;
77888;SDS011;67082;41.704;44.768;2023-09-18T07:58:09;5.05;;;2.72;;
77888;SDS011;67082;41.704;44.768;2023-09-18T08:00:37;5.15;;;3.05;;
77888;SDS011;67082;41.704;44.768;2023-09-18T08:03:05;5.75;;;3.08;;
77888;SDS011;67082;41.704;44.768;2023-09-18T08:05:34;5.97;;;3.10;;
77888;SDS011;67082;41.704;44.768;2023-09-18T08:08:02;5.63;;;2.70;;
77888;SDS011;67082;41.704;44.768;2023-09-18T08:10:36;7.20;;;3.17;;
77888;SDS011;67082;41.704;44.768;2023-09-18T08:13:05;6.15;;;3.00;;
77888;SDS011;67082;41.704;44.768;2023-09-18T08:15:33;5.93;;;3.20;;
77888;SDS011;67082;41.704;44.768;2023-09-18T08:18:02;6.65;;;3.20;;
77888;SDS011;67082;41.704;44.768;2023-09-18T08:20:31;6.68;;;2.78;;
77888;SDS011;67082;41.704;44.768;2023-09-18T08:23:00;5.03;;;2.97;;
77888;SDS011;67082;41.704;44.768;2023-09-18T08:25:28;3.75;;;2.70;;
77888;SDS011;67082;41.704;44.768;2023-09-18T08:27:57;5.25;;;3.05;;
77888;SDS011;67082;41.704;44.768;2023-09-18T08:30:25;6.15;;;3.10;;
77888;SDS011;67082;41.704;44.768;2023-09-18T08:32:54;3.90;;;2.88;;
77888;SDS011;67082;41.704;44.768;2023-09-18T08:35:22;7.35;;;3.30;;
77888;SDS011;67082;41.704;44.768;2023-09-18T08:37:51;8.45;;;3.20;;
77888;SDS011;67082;41.704;44.768;2023-09-18T08:40:19;5.93;;;2.95;;
77888;SDS011;67082;41.704;44.768;2023-09-18T08:42:47;5.72;;;2.80;;
77888;SDS011;67082;41.704;44.768;2023-09-18T08:48:25;7.50;;;3.40;;
77888;SDS011;67082;41.704;44.768;2023-09-18T08:50:56;6.82;;;3.20;;
77888;SDS011;67082;41.704;44.768;2023-09-18T08:53:25;6.43;;;3.10;;
77888;SDS011;67082;41.704;44.768;2023-09-18T08:55:54;8.82;;;3.10;;
77888;SDS011;67082;41.704;44.768;2023-09-18T08:58:26;8.45;;;3.38;;
77888;SDS011;67082;41.704;44.768;2023-09-18T09:00:55;8.50;;;3.33;;
77888;SDS011;67082;41.704;44.768;2023-09-18T09:03:24;7.03;;;3.15;;
77888;SDS011;67082;41.704;44.768;2023-09-18T09:05:54;5.70;;;2.92;;
77888;SDS011;67082;41.704;44.768;2023-09-18T09:08:23;8.10;;;3.33;;
77888;SDS011;67082;41.704;44.768;2023-09-18T09:10:51;6.90;;;3.10;;
77888;SDS011;67082;41.704;44.768;2023-09-18T09:13:19;7.15;;;3.80;;
77888;SDS011;67082;41.704;44.768;2023-09-18T09:16:12;6.53;;;3.03;;
77888;SDS011;67082;41.704;44.768;2023-09-18T09:18:49;5.22;;;3.00;;
77888;SDS011;67082;41.704;44.768;2023-09-18T09:21:19;8.00;;;3.47;;
77888;SDS011;67082;41.704;44.768;2023-09-18T09:23:51;7.70;;;3.70;;
77888;SDS011;67082;41.704;44.768;2023-09-18T09:26:22;11.10;;;3.65;;
77888;SDS011;67082;41.704;44.768;2023-09-18T09:28:51;5.82;;;3.65;;
77888;SDS011;67082;41.704;44.768;2023-09-18T09:31:26;8.07;;;4.00;;
77888;SDS011;67082;41.704;44.768;2023-09-18T09:33:56;6.55;;;3.33;;
77888;SDS011;67082;41.704;44.768;2023-09-18T09:36:25;6.97;;;3.58;;
77888;SDS011;67082;41.704;44.768;2023-09-18T09:38:55;5.80;;;3.55;;
77888;SDS011;67082;41.704;44.768;2023-09-18T09:41:27;8.45;;;3.60;;
77888;SDS011;67082;41.704;44.768;2023-09-18T09:43:57;8.00;;;3.40;;
77888;SDS011;67082;41.704;44.768;2023-09-18T09:46:25;4.90;;;3.30;;
77888;SDS011;67082;41.704;44.768;2023-09-18T09:48:58;12.65;;;4.20;;
77888;SDS011;67082;41.704;44.768;2023-09-18T09:51:33;6.30;;;3.60;;
77888;SDS011;67082;41.704;44.768;2023-09-18T09:54:02;6.68;;;3.58;;
77888;SDS011;67082;41.704;44.768;2023-09-18T09:59:16;5.40;;;3.00;;
77888;SDS011;67082;41.704;44.768;2023-09-18T10:01:47;5.57;;;3.17;;
77888;SDS011;67082;41.704;44.768;2023-09-18T10:04:18;9.82;;;3.75;;
77888;SDS011;67082;41.704;44.768;2023-09-18T10:06:52;9.18;;;3.80;;
77888;SDS011;67082;41.704;44.768;2023-09-18T10:09:25;8.48;;;3.28;;
77888;SDS011;67082;41.704;44.768;2023-09-18T10:11:57;6.82;;;3.15;;
77888;SDS011;67082;41.704;44.768;2023-09-18T10:14:30;8.02;;;3.70;;
77888;SDS011;67082;41.704;44.768;2023-09-18T10:17:18;6.45;;;3.33;;
77888;SDS011;67082;41.704;44.768;2023-09-18T10:25:24;5.63;;;3.35;;
77888;SDS011;67082;41.704;44.768;2023-09-18T10:27:58;4.80;;;3.20;;
77888;SDS011;67082;41.704;44.768;2023-09-18T10:30:29;7.38;;;3.47;;
77888;SDS011;67082;41.704;44.768;2023-09-18T10:33:01;6.05;;;3.20;;
77888;SDS011;67082;41.704;44.768;2023-09-18T10:35:30;7.35;;;3.30;;
77888;SDS011;67082;41.704;44.768;2023-09-18T10:37:59;4.03;;;3.15;;
77888;SDS011;67082;41.704;44.768;2023-09-18T10:40:30;5.10;;;3.20;;
77888;SDS011;67082;41.704;44.768;2023-09-18T10:43:00;9.32;;;3.30;;
77888;SDS011;67082;41.704;44.768;2023-09-18T10:45:32;5.50;;;3.35;;
77888;SDS011;67082;41.704;44.768;2023-09-18T10:48:00;9.57;;;3.50;;
77888;SDS011;67082;41.704;44.768;2023-09-18T10:50:30;5.60;;;3.40;;
77888;SDS011;67082;41.704;44.768;2023-09-18T10:52:58;5.63;;;3.05;;
77888;SDS011;67082;41.704;44.768;2023-09-18T10:55:27;4.90;;;2.80;;
77888;SDS011;67082;41.704;44.768;2023-09-18T10:57:56;6.47;;;2.75;;
77888;SDS011;67082;41.704;44.768;2023-09-18T11:00:26;9.88;;;3.50;;
77888;SDS011;67082;41.704;44.768;2023-09-18T11:03:15;5.68;;;2.83;;
77888;SDS011;67082;41.704;44.768;2023-09-18T11:05:48;7.25;;;3.00;;
77888;SDS011;67082;41.704;44.768;2023-09-18T11:11:32;4.68;;;2.83;;
77888;SDS011;67082;41.704;44.768;2023-09-18T11:14:03;3.88;;;2.80;;
77888;SDS011;67082;41.704;44.768;2023-09-18T11:16:39;5.57;;;2.90;;
77888;SDS011;67082;41.704;44.768;2023-09-18T11:19:08;8.27;;;3.00;;
77888;SDS011;67082;41.704;44.768;2023-09-18T11:21:39;5.05;;;3.35;;
77888;SDS011;67082;41.704;44.768;2023-09-18T11:24:09;6.13;;;3.10;;
77888;SDS011;67082;41.704;44.768;2023-09-18T11:26:45;8.45;;;3.28;;
77888;SDS011;67082;41.704;44.768;2023-09-18T11:29:21;4.22;;;2.80;;
77888;SDS011;67082;41.704;44.768;2023-09-18T11:31:54;7.93;;;3.65;;
77888;SDS011;67082;41.704;44.768;2023-09-18T11:34:32;6.65;;;3.35;;
77888;SDS011;67082;41.704;44.768;2023-09-18T11:37:21;6.85;;;3.30;;
77888;SDS011;67082;41.704;44.768;2023-09-18T11:39:51;5.40;;;2.90;;
77888;SDS011;67082;41.704;44.768;2023-09-18T11:56:55;9.82;;;2.90;;
77888;SDS011;67082;41.704;44.768;2023-09-18T11:59:36;9.48;;;3.20;;
77888;SDS011;67082;41.704;44.768;2023-09-18T12:02:11;6.20;;;3.30;;
77888;SDS011;67082;41.704;44.768;2023-09-18T12:05:10;5.63;;;3.28;;
77888;SDS011;67082;41.704;44.768;2023-09-18T12:07:47;6.75;;;3.20;;
77888;SDS011;67082;41.704;44.768;2023-09-18T12:10:18;9.10;;;3.65;;
77888;SDS011;67082;41.704;44.768;2023-09-18T12:12:50;8.98;;;3.33;;
77888;SDS011;67082;41.704;44.768;2023-09-18T12:15:18;11.75;;;3.35;;
77888;SDS011;67082;41.704;44.768;2023-09-18T12:17:47;5.47;;;3.22;;
77888;SDS011;67082;41.704;44.768;2023-09-18T12:20:16;6.55;;;2.90;;
77888;SDS011;67082;41.704;44.768;2023-09-18T12:22:47;6.57;;;3.00;;
77888;SDS011;67082;41.704;44.768;2023-09-18T12:25:17;6.85;;;4.40;;
77888;SDS011;67082;41.704;44.768;2023-09-18T12:27:54;6.85;;;3.00;;
77888;SDS011;67082;41.704;44.768;2023-09-18T12:30:23;7.95;;;2.90;;
77888;SDS011;67082;41.704;44.768;2023-09-18T12:32:52;15.25;;;3.30;;
77888;SDS011;67082;41.704;44.768;2023-09-18T12:35:25;8.68;;;3.17;;
77888;SDS011;67082;41.704;44.768;2023-09-18T12:37:58;7.65;;;3.15;;
77888;SDS011;67082;41.704;44.768;2023-09-18T12:40:29;9.45;;;3.00;;
77888;SDS011;67082;41.704;44.768;2023-09-18T12:42:57;7.20;;;2.70;;
77888;SDS011;67082;41.704;44.768;2023-09-18T12:45:27;3.97;;;2.72;;
77888;SDS011;67082;41.704;44.768;2023-09-18T12:47:57;11.68;;;2.63;;
77888;SDS011;67082;41.704;44.768;2023-09-18T12:50:27;5.47;;;2.47;;
77888;SDS011;67082;41.704;44.768;2023-09-18T12:53:11;5.07;;;2.80;;
77888;SDS011;67082;41.704;44.768;2023-09-18T12:55:42;6.05;;;2.65;;
77888;SDS011;67082;41.704;44.768;2023-09-18T12:58:11;6.90;;;2.60;;
77888;SDS011;67082;41.704;44.768;2023-09-18T13:00:45;4.50;;;2.45;;
77888;SDS011;67082;41.704;44.768;2023-09-18T13:03:16;6.93;;;2.40;;
77888;SDS011;67082;41.704;44.768;2023-09-18T13:05:45;8.73;;;2.45;;
77888;SDS011;67082;41.704;44.768;2023-09-18T13:08:14;5.80;;;2.10;;
77888;SDS011;67082;41.704;44.768;2023-09-18T13:10:43;8.55;;;2.60;;
77888;SDS011;67082;41.704;44.768;2023-09-18T13:13:16;9.75;;;2.40;;
77888;SDS011;67082;41.704;44.768;2023-09-18T13:15:47;6.82;;;2.42;;
77888;SDS011;67082;41.704;44.768;2023-09-18T13:18:19;6.25;;;2.60;;
77888;SDS011;67082;41.704;44.768;2023-09-18T13:20:48;10.48;;;2.58;;
77888;SDS011;67082;41.704;44.768;2023-09-18T13:23:16;11.18;;;3.45;;
77888;SDS011;67082;41.704;44.768;2023-09-18T13:25:48;14.80;;;3.00;;
77888;SDS011;67082;41.704;44.768;2023-09-18T13:28:16;7.90;;;2.47;;
77888;SDS011;67082;41.704;44.768;2023-09-18T13:30:48;10.55;;;2.45;;
77888;SDS011;67082;41.704;44.768;2023-09-18T13:33:20;4.97;;;2.60;;
77888;SDS011;67082;41.704;44.768;2023-09-18T13:35:48;11.23;;;5.03;;
77888;SDS011;67082;41.704;44.768;2023-09-18T13:38:16;9.38;;;2.95;;
77888;SDS011;67082;41.704;44.768;2023-09-18T13:40:46;8.85;;;2.70;;
77888;SDS011;67082;41.704;44.768;2023-09-18T13:43:15;9.77;;;2.30;;
77888;SDS011;67082;41.704;44.768;2023-09-18T13:45:43;7.15;;;2.38;;
77888;SDS011;67082;41.704;44.768;2023-09-18T13:48:11;8.82;;;2.90;;
77888;SDS011;67082;41.704;44.768;2023-09-18T13:50:40;8.18;;;1.70;;
77888;SDS011;67082;41.704;44.768;2023-09-18T13:53:08;5.10;;;2.00;;
77888;SDS011;67082;41.704;44.768;2023-09-18T13:55:37;5.03;;;1.70;;
77888;SDS011;67082;41.704;44.768;2023-09-18T13:58:05;7.80;;;1.90;;
77888;SDS011;67082;41.704;44.768;2023-09-18T14:00:34;6.53;;;1.73;;
77888;SDS011;67082;41.704;44.768;2023-09-18T14:03:02;3.53;;;1.58;;
77888;SDS011;67082;41.704;44.768;2023-09-18T14:05:31;7.40;;;1.92;;
77888;SDS011;67082;41.704;44.768;2023-09-18T14:08:01;4.68;;;1.60;;
77888;SDS011;67082;41.704;44.768;2023-09-18T14:10:30;4.70;;;1.70;;
77888;SDS011;67082;41.704;44.768;2023-09-18T14:12:58;5.47;;;2.28;;
77888;SDS011;67082;41.704;44.768;2023-09-18T14:15:27;8.45;;;1.80;;
77888;SDS011;67082;41.704;44.768;2023-09-18T14:17:56;5.25;;;1.80;;
77888;SDS011;67082;41.704;44.768;2023-09-18T14:20:25;6.47;;;2.03;;
77888;SDS011;67082;41.704;44.768;2023-09-18T14:22:53;4.95;;;2.20;;
77888;SDS011;67082;41.704;44.768;2023-09-18T14:25:21;5.43;;;2.20;;
77888;SDS011;67082;41.704;44.768;2023-09-18T14:27:50;9.18;;;1.80;;
77888;SDS011;67082;41.704;44.768;2023-09-18T14:30:19;3.55;;;1.70;;
77888;SDS011;67082;41.704;44.768;2023-09-18T14:32:50;6.15;;;1.88;;
77888;SDS011;67082;41.704;44.768;2023-09-18T14:35:18;7.80;;;2.60;;
77888;SDS011;67082;41.704;44.768;2023-09-18T14:37:47;5.10;;;1.73;;
77888;SDS011;67082;41.704;44.768;2023-09-18T14:40:17;8.63;;;1.85;;
77888;SDS011;67082;41.704;44.768;2023-09-18T14:42:48;5.72;;;1.60;;
77888;SDS011;67082;41.704;44.768;2023-09-18T14:45:17;6.15;;;2.10;;
77888;SDS011;67082;41.704;44.768;2023-09-18T14:47:45;4.03;;;1.30;;
77888;SDS011;67082;41.704;44.768;2023-09-18T14:50:14;6.30;;;1.50;;
77888;SDS011;67082;41.704;44.768;2023-09-18T14:52:43;3.65;;;1.30;;
77888;SDS011;67082;41.704;44.768;2023-09-18T14:55:11;2.30;;;1.45;;
77888;SDS011;67082;41.704;44.768;2023-09-18T14:57:40;4.35;;;1.30;;
77888;SDS011;67082;41.704;44.768;2023-09-18T15:00:08;5.05;;;1.70;;
77888;SDS011;67082;41.704;44.768;2023-09-18T15:02:40;2.92;;;1.40;;
77888;SDS011;67082;41.704;44.768;2023-09-18T15:05:09;4.00;;;1.35;;
77888;SDS011;67082;41.704;44.768;2023-09-18T15:07:40;7.18;;;1.70;;
77888;SDS011;67082;41.704;44.768;2023-09-18T15:10:08;5.03;;;1.50;;
77888;SDS011;67082;41.704;44.768;2023-09-18T15:12:37;5.80;;;1.73;;
77888;SDS011;67082;41.704;44.768;2023-09-18T15:15:08;6.68;;;1.60;;
77888;SDS011;67082;41.704;44.768;2023-09-18T15:17:37;4.70;;;1.50;;
77888;SDS011;67082;41.704;44.768;2023-09-18T15:20:10;3.65;;;1.40;;
77888;SDS011;67082;41.704;44.768;2023-09-18T15:23:01;6.35;;;1.75;;
77888;SDS011;67082;41.704;44.768;2023-09-18T15:25:31;7.55;;;2.28;;
77888;SDS011;67082;41.704;44.768;2023-09-18T15:28:03;4.90;;;1.52;;